sensor_id;sensor_type;location;lat;lon;timestamp;temperature;humidity
12460;DHT22;6295;49.452;8.466;2023-05-10T03:18:54;14.20;99.90
12460;DHT22;6295;49.452;8.466;2023-05-10T03:23:12;14.20;99.90
12460;DHT22;6295;49.452;8.466;2023-05-10T03:27:15;14.20;99.90
12460;DHT22;6295;49.452;8.466;2023-05-10T03:31:23;14.20;99.90
12460;DHT22;6295;49.452;8.466;2023-05-10T03:35:25;14.20;99.90
12460;DHT22;6295;49.452;8.466;2023-05-10T03:39:27;14.10;99.90
12460;DHT22;6295;49.452;8.466;2023-05-10T03:47:33;14.10;99.90
12460;DHT22;6295;49.452;8.466;2023-05-10T03:51:35;14.00;99.90
12460;DHT22;6295;49.452;8.466;2023-05-10T03:55:37;14.00;99.90
12460;DHT22;6295;49.452;8.466;2023-05-10T03:59:41;14.00;99.90
12460;DHT22;6295;49.452;8.466;2023-05-10T04:03:46;14.00;99.90
12460;DHT22;6295;49.452;8.466;2023-05-10T04:07:48;13.90;99.90
12460;DHT22;6295;49.452;8.466;2023-05-10T04:11:51;13.90;99.90
12460;DHT22;6295;49.452;8.466;2023-05-10T04:15:53;13.80;99.90
12460;DHT22;6295;49.452;8.466;2023-05-10T04:19:57;13.70;99.90
12460;DHT22;6295;49.452;8.466;2023-05-10T04:28:01;13.70;99.90
12460;DHT22;6295;49.452;8.466;2023-05-10T04:32:04;13.60;99.90
12460;DHT22;6295;49.452;8.466;2023-05-10T04:36:08;13.60;99.90
12460;DHT22;6295;49.452;8.466;2023-05-10T04:44:13;13.60;99.90
12460;DHT22;6295;49.452;8.466;2023-05-10T04:48:15;13.60;99.90
12460;DHT22;6295;49.452;8.466;2023-05-10T04:52:18;13.60;99.90
12460;DHT22;6295;49.452;8.466;2023-05-10T04:56:21;13.60;99.90
12460;DHT22;6295;49.452;8.466;2023-05-10T05:04:26;13.60;99.90
12460;DHT22;6295;49.452;8.466;2023-05-10T05:08:29;13.60;99.90
12460;DHT22;6295;49.452;8.466;2023-05-10T05:12:31;13.60;99.90
12460;DHT22;6295;49.452;8.466;2023-05-10T05:16:33;13.60;99.90
12460;DHT22;6295;49.452;8.466;2023-05-10T05:20:36;13.70;99.90
12460;DHT22;6295;49.452;8.466;2023-05-10T05:24:39;12.50;99.90
12460;DHT22;6295;49.452;8.466;2023-05-10T05:28:41;13.70;99.90
12460;DHT22;6295;49.452;8.466;2023-05-10T05:32:44;13.70;99.90
12460;DHT22;6295;49.452;8.466;2023-05-10T05:36:50;13.70;99.90
12460;DHT22;6295;49.452;8.466;2023-05-10T05:40:58;13.80;99.90
12460;DHT22;6295;49.452;8.466;2023-05-10T05:45:02;13.80;99.90
12460;DHT22;6295;49.452;8.466;2023-05-10T05:53:06;13.90;99.90
12460;DHT22;6295;49.452;8.466;2023-05-10T05:57:10;13.90;99.90
12460;DHT22;6295;49.452;8.466;2023-05-10T06:01:12;13.90;99.90
12460;DHT22;6295;49.452;8.466;2023-05-10T06:05:14;14.00;99.90
12460;DHT22;6295;49.452;8.466;2023-05-10T06:09:16;14.00;99.90
12460;DHT22;6295;49.452;8.466;2023-05-10T06:13:19;14.00;99.90
12460;DHT22;6295;49.452;8.466;2023-05-10T06:17:22;14.10;99.90
12460;DHT22;6295;49.452;8.466;2023-05-10T06:21:25;14.10;99.90
12460;DHT22;6295;49.452;8.466;2023-05-10T06:25:29;14.10;99.90
12460;DHT22;6295;49.452;8.466;2023-05-10T06:29:33;14.20;99.90
12460;DHT22;6295;49.452;8.466;2023-05-10T06:33:35;14.20;99.90
12460;DHT22;6295;49.452;8.466;2023-05-10T06:37:37;14.30;99.90
12460;DHT22;6295;49.452;8.466;2023-05-10T06:41:39;14.30;99.90
12460;DHT22;6295;49.452;8.466;2023-05-10T06:45:43;14.30;99.90
12460;DHT22;6295;49.452;8.466;2023-05-10T06:49:45;14.40;99.90
12460;DHT22;6295;49.452;8.466;2023-05-10T06:53:47;14.40;99.90
12460;DHT22;6295;49.452;8.466;2023-05-10T06:57:51;14.40;99.90
12460;DHT22;6295;49.452;8.466;2023-05-10T07:01:56;14.50;99.90
12460;DHT22;6295;49.452;8.466;2023-05-10T07:10:05;14.60;99.90
12460;DHT22;6295;49.452;8.466;2023-05-10T07:14:07;14.70;99.90
12460;DHT22;6295;49.452;8.466;2023-05-10T07:22:17;14.80;99.90
12460;DHT22;6295;49.452;8.466;2023-05-10T07:26:19;14.80;99.90
12460;DHT22;6295;49.452;8.466;2023-05-10T07:34:26;15.00;99.90
12460;DHT22;6295;49.452;8.466;2023-05-10T07:38:28;15.00;99.90
12460;DHT22;6295;49.452;8.466;2023-05-10T07:42:31;15.10;99.90
12460;DHT22;6295;49.452;8.466;2023-05-10T07:46:33;15.20;99.90
12460;DHT22;6295;49.452;8.466;2023-05-10T07:50:36;15.20;99.90
12460;DHT22;6295;49.452;8.466;2023-05-10T07:54:38;15.20;99.90
12460;DHT22;6295;49.452;8.466;2023-05-10T07:58:41;15.30;99.90
12460;DHT22;6295;49.452;8.466;2023-05-10T08:06:55;15.30;99.90
12460;DHT22;6295;49.452;8.466;2023-05-10T08:10:57;15.30;99.90
12460;DHT22;6295;49.452;8.466;2023-05-10T08:14:59;15.30;99.90
12460;DHT22;6295;49.452;8.466;2023-05-10T08:19:01;15.30;99.90
12460;DHT22;6295;49.452;8.466;2023-05-10T08:23:05;15.40;99.90
12460;DHT22;6295;49.452;8.466;2023-05-10T08:39:16;15.50;99.90
12460;DHT22;6295;49.452;8.466;2023-05-10T08:43:22;15.40;99.90
12460;DHT22;6295;49.452;8.466;2023-05-10T08:51:34;15.40;99.90
12460;DHT22;6295;49.452;8.466;2023-05-10T08:55:40;15.40;99.90
12460;DHT22;6295;49.452;8.466;2023-05-10T08:59:43;15.40;99.90
12460;DHT22;6295;49.452;8.466;2023-05-10T09:03:46;15.40;99.90
12460;DHT22;6295;49.452;8.466;2023-05-10T09:07:48;15.40;99.90
12460;DHT22;6295;49.452;8.466;2023-05-10T09:11:53;15.40;99.90
12460;DHT22;6295;49.452;8.466;2023-05-10T09:15:58;15.40;99.90
12460;DHT22;6295;49.452;8.466;2023-05-10T09:20:03;15.40;99.90
12460;DHT22;6295;49.452;8.466;2023-05-10T09:24:07;15.40;99.90
12460;DHT22;6295;49.452;8.466;2023-05-10T09:28:11;15.50;99.90
12460;DHT22;6295;49.452;8.466;2023-05-10T09:40:20;15.60;99.90
12460;DHT22;6295;49.452;8.466;2023-05-10T09:44:25;15.60;99.90
12460;DHT22;6295;49.452;8.466;2023-05-10T09:48:28;15.70;99.90
12460;DHT22;6295;49.452;8.466;2023-05-10T09:52:30;15.60;99.90
12460;DHT22;6295;49.452;8.466;2023-05-10T09:56:33;15.60;99.90
12460;DHT22;6295;49.452;8.466;2023-05-10T10:00:39;15.70;99.90
12460;DHT22;6295;49.452;8.466;2023-05-10T10:04:41;15.70;99.90
12460;DHT22;6295;49.452;8.466;2023-05-10T10:12:46;15.80;99.90
12460;DHT22;6295;49.452;8.466;2023-05-10T10:16:50;15.80;99.90
12460;DHT22;6295;49.452;8.466;2023-05-10T10:24:55;15.70;99.90
12460;DHT22;6295;49.452;8.466;2023-05-10T10:29:07;15.70;99.90
12460;DHT22;6295;49.452;8.466;2023-05-10T10:33:33;15.70;99.90
12460;DHT22;6295;49.452;8.466;2023-05-10T10:37:44;15.70;99.90
12460;DHT22;6295;49.452;8.466;2023-05-10T10:50:15;15.90;99.90
12460;DHT22;6295;49.452;8.466;2023-05-10T10:54:28;16.10;99.90
12460;DHT22;6295;49.452;8.466;2023-05-10T10:58:32;16.20;99.90
12460;DHT22;6295;49.452;8.466;2023-05-10T11:02:44;16.40;99.90
12460;DHT22;6295;49.452;8.466;2023-05-10T11:06:50;16.60;99.90
12460;DHT22;6295;49.452;8.466;2023-05-10T11:14:57;17.00;99.90
12460;DHT22;6295;49.452;8.466;2023-05-10T11:19:02;17.20;99.90
12460;DHT22;6295;49.452;8.466;2023-05-10T11:23:13;17.30;99.90
12460;DHT22;6295;49.452;8.466;2023-05-10T11:27:16;17.30;99.90
12460;DHT22;6295;49.452;8.466;2023-05-10T11:31:19;17.30;99.90
12460;DHT22;6295;49.452;8.466;2023-05-10T11:39:27;17.20;99.90
12460;DHT22;6295;49.452;8.466;2023-05-10T11:43:30;17.10;99.90
12460;DHT22;6295;49.452;8.466;2023-05-10T11:47:32;17.20;99.90
12460;DHT22;6295;49.452;8.466;2023-05-10T11:51:36;17.20;99.90
12460;DHT22;6295;49.452;8.466;2023-05-10T11:55:41;17.30;99.90
12460;DHT22;6295;49.452;8.466;2023-05-10T11:59:43;17.30;99.90
12460;DHT22;6295;49.452;8.466;2023-05-10T12:07:48;17.40;99.90
12460;DHT22;6295;49.452;8.466;2023-05-10T12:11:55;17.40;99.90
12460;DHT22;6295;49.452;8.466;2023-05-10T12:20:13;17.50;99.90
12460;DHT22;6295;49.452;8.466;2023-05-10T12:24:16;17.50;99.90
12460;DHT22;6295;49.452;8.466;2023-05-10T12:28:20;17.50;99.90
12460;DHT22;6295;49.452;8.466;2023-05-10T12:32:37;17.50;99.90
12460;DHT22;6295;49.452;8.466;2023-05-10T12:48:56;17.60;99.90
12460;DHT22;6295;49.452;8.466;2023-05-10T12:52:59;17.70;99.90
12460;DHT22;6295;49.452;8.466;2023-05-10T12:57:01;17.70;99.90
12460;DHT22;6295;49.452;8.466;2023-05-10T13:01:04;17.70;99.90
12460;DHT22;6295;49.452;8.466;2023-05-10T13:05:07;17.80;99.90
12460;DHT22;6295;49.452;8.466;2023-05-10T13:09:09;17.90;99.90
12460;DHT22;6295;49.452;8.466;2023-05-10T13:17:15;18.00;99.90
12460;DHT22;6295;49.452;8.466;2023-05-10T13:21:17;17.90;99.90
12460;DHT22;6295;49.452;8.466;2023-05-10T13:25:19;18.00;99.90
12460;DHT22;6295;49.452;8.466;2023-05-10T13:33:27;18.10;99.90
12460;DHT22;6295;49.452;8.466;2023-05-10T13:37:29;18.10;99.90
12460;DHT22;6295;49.452;8.466;2023-05-10T13:41:31;18.10;99.90
12460;DHT22;6295;49.452;8.466;2023-05-10T13:49:37;18.20;99.90
12460;DHT22;6295;49.452;8.466;2023-05-10T13:53:40;18.20;99.90
12460;DHT22;6295;49.452;8.466;2023-05-10T13:57:42;18.20;99.90
12460;DHT22;6295;49.452;8.466;2023-05-10T14:01:44;18.20;99.90
12460;DHT22;6295;49.452;8.466;2023-05-10T14:13:52;18.20;99.90
12460;DHT22;6295;49.452;8.466;2023-05-10T14:17:54;18.10;99.90
12460;DHT22;6295;49.452;8.466;2023-05-10T14:21:58;18.20;99.90
12460;DHT22;6295;49.452;8.466;2023-05-10T14:26:00;18.10;99.90
12460;DHT22;6295;49.452;8.466;2023-05-10T14:30:04;18.10;99.90
12460;DHT22;6295;49.452;8.466;2023-05-10T14:38:10;18.20;99.90
12460;DHT22;6295;49.452;8.466;2023-05-10T14:42:13;18.30;99.90
12460;DHT22;6295;49.452;8.466;2023-05-10T14:46:15;18.30;99.90
12460;DHT22;6295;49.452;8.466;2023-05-10T14:50:17;18.30;99.90
12460;DHT22;6295;49.452;8.466;2023-05-10T15:02:26;18.40;99.90
12460;DHT22;6295;49.452;8.466;2023-05-10T15:06:31;18.40;99.90
12460;DHT22;6295;49.452;8.466;2023-05-10T15:10:36;18.50;99.90
12460;DHT22;6295;49.452;8.466;2023-05-10T15:14:39;18.60;99.90
12460;DHT22;6295;49.452;8.466;2023-05-10T15:18:41;18.60;99.90
12460;DHT22;6295;49.452;8.466;2023-05-10T15:22:43;18.70;99.90
12460;DHT22;6295;49.452;8.466;2023-05-10T15:34:51;18.70;99.90
12460;DHT22;6295;49.452;8.466;2023-05-10T15:38:54;18.80;99.90
12460;DHT22;6295;49.452;8.466;2023-05-10T15:42:57;18.90;99.90
12460;DHT22;6295;49.452;8.466;2023-05-10T15:51:02;19.00;99.90
12460;DHT22;6295;49.452;8.466;2023-05-10T15:55:05;19.10;99.90
12460;DHT22;6295;49.452;8.466;2023-05-10T15:59:13;19.00;99.90
12460;DHT22;6295;49.452;8.466;2023-05-10T16:03:15;19.00;99.90
12460;DHT22;6295;49.452;8.466;2023-05-10T16:07:17;19.00;99.90
12460;DHT22;6295;49.452;8.466;2023-05-10T16:15:23;18.90;99.90
12460;DHT22;6295;49.452;8.466;2023-05-10T16:23:28;18.90;99.90
12460;DHT22;6295;49.452;8.466;2023-05-10T16:27:30;18.90;99.90
12460;DHT22;6295;49.452;8.466;2023-05-10T16:31:34;18.90;99.90
12460;DHT22;6295;49.452;8.466;2023-05-10T16:35:36;18.90;99.90
12460;DHT22;6295;49.452;8.466;2023-05-10T16:39:38;18.90;99.90
12460;DHT22;6295;49.452;8.466;2023-05-10T16:47:44;18.90;99.90
12460;DHT22;6295;49.452;8.466;2023-05-10T16:51:46;18.90;99.90
12460;DHT22;6295;49.452;8.466;2023-05-10T16:55:48;18.80;99.90
12460;DHT22;6295;49.452;8.466;2023-05-10T16:59:52;18.80;99.90
12460;DHT22;6295;49.452;8.466;2023-05-10T17:03:57;18.80;99.90
12460;DHT22;6295;49.452;8.466;2023-05-10T17:07:59;18.70;99.90
12460;DHT22;6295;49.452;8.466;2023-05-10T17:12:01;18.60;99.90
12460;DHT22;6295;49.452;8.466;2023-05-10T17:16:04;18.60;99.90
12460;DHT22;6295;49.452;8.466;2023-05-10T17:20:09;18.50;99.90
12460;DHT22;6295;49.452;8.466;2023-05-10T17:24:12;18.40;99.90
12460;DHT22;6295;49.452;8.466;2023-05-10T17:28:14;18.30;99.90
12460;DHT22;6295;49.452;8.466;2023-05-10T17:32:16;18.30;99.90
12460;DHT22;6295;49.452;8.466;2023-05-10T17:36:19;18.20;99.90
12460;DHT22;6295;49.452;8.466;2023-05-10T17:44:24;18.00;99.90
12460;DHT22;6295;49.452;8.466;2023-05-10T17:48:26;17.90;99.90
12460;DHT22;6295;49.452;8.466;2023-05-10T17:52:30;17.90;99.90
12460;DHT22;6295;49.452;8.466;2023-05-10T18:00:35;17.70;99.90
12460;DHT22;6295;49.452;8.466;2023-05-10T18:04:38;17.60;99.90
12460;DHT22;6295;49.452;8.466;2023-05-10T18:08:42;17.60;99.90
12460;DHT22;6295;49.452;8.466;2023-05-10T18:12:44;17.60;99.90
12460;DHT22;6295;49.452;8.466;2023-05-10T18:16:46;17.80;99.90
12460;DHT22;6295;49.452;8.466;2023-05-10T18:20:48;17.90;99.90
12460;DHT22;6295;49.452;8.466;2023-05-10T18:24:57;18.00;99.90
12460;DHT22;6295;49.452;8.466;2023-05-10T18:28:59;17.90;99.90
12460;DHT22;6295;49.452;8.466;2023-05-10T18:33:01;17.80;99.90
12460;DHT22;6295;49.452;8.466;2023-05-10T18:41:08;17.50;99.90
12460;DHT22;6295;49.452;8.466;2023-05-10T18:45:12;17.40;99.90
12460;DHT22;6295;49.452;8.466;2023-05-10T18:49:14;17.30;99.90
12460;DHT22;6295;49.452;8.466;2023-05-10T18:53:16;17.20;99.90
